^^
Meteo Knjazevac Station Historical Data
Daily Summary for April 19, 2021 Units:  Both    English   Metric
Daily Weekly Monthly Yearly Custom
  High: Low: Average:
Temperature: 42.4 °F /  5.8 °C 40.6 °F /  4.8 °C 41.2 °F /  5.1 °C
Dew Point: 41.9 °F /  5.5 °C 40.4 °F /  4.7 °C 41 °F /  5 °C
Humidity: 99% 98% 99%
Wind Speed: 5mph /  8km/h - 0.8mph /  1.3km/h
Wind Gust: 10mph /  16.1km/h - -
Wind- - SSW
Pressure: 30.12 in /  1019.9 hPa 30.06 in /  1017.8 hPa -
Precipitation: 0.00 in /  0 mm    
Historical Graphs
 
 
Tabular Data for April 19, 2021
Time Temperature Dew Point Pressure Wind Wind Speed Wind Gust Humidity Rainfall Rate (Hourly) solar Conditions
00:00 41.7 °F /  5.4 °C 41.5 °F /  5.3 °C 30.12in /  1019.9hPa Calm   1mph /  1.6km/h 99% 0.00in /  0mm 0 W/m2
00:10 41.7 °F /  5.4 °C 41.5 °F /  5.3 °C 30.12in /  1019.9hPa Calm   1mph /  1.6km/h 99% 0.00in /  0mm 0 W/m2
00:20 41.5 °F /  5.3 °C 41.3 °F /  5.2 °C 30.12in /  1019.9hPa NE 1mph /  1.6km/h 2mph /  3.2km/h 99% 0.00in /  0mm 0 W/m2
00:30 41.5 °F /  5.3 °C 41.3 °F /  5.2 °C 30.12in /  1019.9hPa NE 1mph /  1.6km/h 2mph /  3.2km/h 99% 0.00in /  0mm 0 W/m2
00:40 41.5 °F /  5.3 °C 41.3 °F /  5.2 °C 30.11in /  1019.5hPa NNE 2mph /  3.2km/h 3mph /  4.8km/h 99% 0.00in /  0mm 0 W/m2
00:50 41.5 °F /  5.3 °C 41.2 °F /  5.1 °C 30.11in /  1019.5hPa North 1mph /  1.6km/h 3mph /  4.8km/h 99% 0.00in /  0mm 0 W/m2
01:00 41.5 °F /  5.3 °C 41.3 °F /  5.2 °C 30.12in /  1019.9hPa Calm   1mph /  1.6km/h 99% 0.00in /  0mm 0 W/m2
01:10 41.5 °F /  5.3 °C 41.3 °F /  5.2 °C 30.11in /  1019.5hPa Calm   2mph /  3.2km/h 99% 0.00in /  0mm 0 W/m2
01:20 41.5 °F /  5.3 °C 41.3 °F /  5.2 °C 30.11in /  1019.5hPa Calm   2mph /  3.2km/h 99% 0.00in /  0mm 0 W/m2
01:30 41.7 °F /  5.4 °C 41.5 °F /  5.3 °C 30.10in /  1019.2hPa Calm     99% 0.00in /  0mm 0 W/m2
01:50 41.7 °F /  5.4 °C 41.5 °F /  5.3 °C 30.10in /  1019.2hPa Calm   2mph /  3.2km/h 99% 0.00in /  0mm 0 W/m2
02:00 41.7 °F /  5.4 °C 41.5 °F /  5.3 °C 30.10in /  1019.2hPa North 1mph /  1.6km/h 3mph /  4.8km/h 99% 0.00in /  0mm 0 W/m2
02:10 41.5 °F /  5.3 °C 41.3 °F /  5.2 °C 30.10in /  1019.2hPa Calm   3mph /  4.8km/h 99% 0.00in /  0mm 0 W/m2
02:20 41.5 °F /  5.3 °C 41.3 °F /  5.2 °C 30.10in /  1019.2hPa NNW 1mph /  1.6km/h 5mph /  8km/h 99% 0.00in /  0mm 0 W/m2
02:30 41.4 °F /  5.2 °C 41.2 °F /  5.1 °C 30.10in /  1019.2hPa NNW 2mph /  3.2km/h 5mph /  8km/h 99% 0.00in /  0mm 0 W/m2
02:40 41.4 °F /  5.2 °C 41.1 °F /  5.1 °C 30.10in /  1019.2hPa North 2mph /  3.2km/h 5mph /  8km/h 99% 0.00in /  0mm 0 W/m2
02:50 41.4 °F /  5.2 °C 41.1 °F /  5.1 °C 30.09in /  1018.8hPa North 1mph /  1.6km/h 5mph /  8km/h 99% 0.00in /  0mm 0 W/m2
03:00 41.4 °F /  5.2 °C 41.1 °F /  5.1 °C 30.10in /  1019.2hPa NNE 1mph /  1.6km/h 3mph /  4.8km/h 99% 0.00in /  0mm 0 W/m2
03:10 41.2 °F /  5.1 °C 40.9 °F /  4.9 °C 30.09in /  1018.8hPa Calm   2mph /  3.2km/h 99% 0.00in /  0mm 0 W/m2
03:20 41 °F /  5 °C 40.7 °F /  4.8 °C 30.09in /  1018.8hPa Calm   2mph /  3.2km/h 99% 0.00in /  0mm 0 W/m2
03:30 40.8 °F /  4.9 °C 40.6 °F /  4.8 °C 30.09in /  1018.8hPa Calm   3mph /  4.8km/h 99% 0.00in /  0mm 0 W/m2
03:40 40.8 °F /  4.9 °C 40.6 °F /  4.8 °C 30.10in /  1019.2hPa WSW 1mph /  1.6km/h 2mph /  3.2km/h 99% 0.00in /  0mm 0 W/m2
03:50 40.6 °F /  4.8 °C 40.4 °F /  4.7 °C 30.09in /  1018.8hPa NW 1mph /  1.6km/h 3mph /  4.8km/h 99% 0.00in /  0mm 0 W/m2
04:00 40.6 °F /  4.8 °C 40.4 °F /  4.7 °C 30.09in /  1018.8hPa Calm   2mph /  3.2km/h 99% 0.00in /  0mm 0 W/m2
04:10 40.6 °F /  4.8 °C 40.4 °F /  4.7 °C 30.09in /  1018.8hPa Calm   2mph /  3.2km/h 99% 0.00in /  0mm 0 W/m2
04:30 40.6 °F /  4.8 °C 40.4 °F /  4.7 °C 30.08in /  1018.5hPa Calm   2mph /  3.2km/h 99% 0.00in /  0mm 0 W/m2
04:40 40.6 °F /  4.8 °C 40.4 °F /  4.7 °C 30.08in /  1018.5hPa North 1mph /  1.6km/h 4mph /  6.4km/h 99% 0.00in /  0mm 0 W/m2
04:50 40.6 °F /  4.8 °C 40.4 °F /  4.7 °C 30.08in /  1018.5hPa Calm   2mph /  3.2km/h 99% 0.00in /  0mm 0 W/m2
05:00 40.6 °F /  4.8 °C 40.4 °F /  4.7 °C 30.08in /  1018.5hPa Calm   1mph /  1.6km/h 99% 0.00in /  0mm 0 W/m2
05:10 40.6 °F /  4.8 °C 40.4 °F /  4.7 °C 30.08in /  1018.5hPa Calm   2mph /  3.2km/h 99% 0.00in /  0mm 0 W/m2
05:20 40.6 °F /  4.8 °C 40.4 °F /  4.7 °C 30.08in /  1018.5hPa Calm   2mph /  3.2km/h 99% 0.00in /  0mm 0 W/m2
05:30 40.6 °F /  4.8 °C 40.4 °F /  4.7 °C 30.08in /  1018.5hPa Calm   1mph /  1.6km/h 99% 0.00in /  0mm 0 W/m2
05:50 40.8 °F /  4.9 °C 40.6 °F /  4.8 °C 30.07in /  1018.2hPa North 1mph /  1.6km/h 3mph /  4.8km/h 99% 0.00in /  0mm 1 W/m2
06:00 40.8 °F /  4.9 °C 40.6 °F /  4.8 °C 30.07in /  1018.2hPa Calm   2mph /  3.2km/h 99% 0.00in /  0mm 3 W/m2
06:20 41.2 °F /  5.1 °C 40.9 °F /  4.9 °C 30.08in /  1018.5hPa Calm   5mph /  8km/h 99% 0.00in /  0mm 17 W/m2
06:30 41.2 °F /  5.1 °C 40.9 °F /  4.9 °C 30.08in /  1018.5hPa NNW 1mph /  1.6km/h 5mph /  8km/h 99% 0.00in /  0mm 32 W/m2
07:00 41.7 °F /  5.4 °C 41.5 °F /  5.3 °C 30.07in /  1018.2hPa North 3mph /  4.8km/h 6mph /  9.7km/h 99% 0.00in /  0mm 46 W/m2
07:20 41.9 °F /  5.5 °C 41.6 °F /  5.3 °C 30.07in /  1018.2hPa North 5mph /  8km/h 10mph /  16.1km/h 99% 0.00in /  0mm 95 W/m2
07:40 42.4 °F /  5.8 °C 41.9 °F /  5.5 °C 30.06in /  1017.8hPa North 5mph /  8km/h 10mph /  16.1km/h 98% 0.00in /  0mm 192 W/m2
Knjazevac, Serbia
Compliments of Weather Underground - 2 mb